sensor_id;sensor_type;location;lat;lon;timestamp;temperature;humidity
48535;DHT22;34323;52.022;5.686;2023-07-02T00:00:08;22.60;99.90
48535;DHT22;34323;52.022;5.686;2023-07-02T00:02:34;22.50;99.90
48535;DHT22;34323;52.022;5.686;2023-07-02T00:05:00;21.90;99.90
48535;DHT22;34323;52.022;5.686;2023-07-02T00:07:26;22.10;99.90
48535;DHT22;34323;52.022;5.686;2023-07-02T00:09:52;22.50;99.90
48535;DHT22;34323;52.022;5.686;2023-07-02T00:12:17;22.60;99.90
48535;DHT22;34323;52.022;5.686;2023-07-02T00:14:43;22.50;99.90
48535;DHT22;34323;52.022;5.686;2023-07-02T00:17:09;22.50;99.90
48535;DHT22;34323;52.022;5.686;2023-07-02T00:19:38;22.60;99.90
48535;DHT22;34323;52.022;5.686;2023-07-02T00:22:07;22.70;99.90
48535;DHT22;34323;52.022;5.686;2023-07-02T00:24:33;22.20;99.90
48535;DHT22;34323;52.022;5.686;2023-07-02T00:26:58;21.60;99.90
48535;DHT22;34323;52.022;5.686;2023-07-02T00:29:24;21.50;99.90
48535;DHT22;34323;52.022;5.686;2023-07-02T00:31:49;21.80;99.90
48535;DHT22;34323;52.022;5.686;2023-07-02T00:34:15;22.10;99.90
48535;DHT22;34323;52.022;5.686;2023-07-02T00:36:40;22.50;99.90
48535;DHT22;34323;52.022;5.686;2023-07-02T00:39:07;22.90;99.90
48535;DHT22;34323;52.022;5.686;2023-07-02T00:41:32;23.10;99.90
48535;DHT22;34323;52.022;5.686;2023-07-02T00:43:58;22.60;99.90
48535;DHT22;34323;52.022;5.686;2023-07-02T00:46:24;22.60;99.90
48535;DHT22;34323;52.022;5.686;2023-07-02T00:48:52;22.60;99.90
48535;DHT22;34323;52.022;5.686;2023-07-02T00:51:26;22.50;99.90
48535;DHT22;34323;52.022;5.686;2023-07-02T00:53:53;22.30;99.90
48535;DHT22;34323;52.022;5.686;2023-07-02T00:56:20;22.30;99.90
48535;DHT22;34323;52.022;5.686;2023-07-02T00:58:48;22.50;99.90
48535;DHT22;34323;52.022;5.686;2023-07-02T01:01:21;22.60;99.90
48535;DHT22;34323;52.022;5.686;2023-07-02T01:06:26;22.80;99.90
48535;DHT22;34323;52.022;5.686;2023-07-02T01:08:54;22.80;99.90
48535;DHT22;34323;52.022;5.686;2023-07-02T01:11:22;22.80;99.90
48535;DHT22;34323;52.022;5.686;2023-07-02T01:13:51;22.80;99.90
48535;DHT22;34323;52.022;5.686;2023-07-02T01:16:18;22.80;99.90
48535;DHT22;34323;52.022;5.686;2023-07-02T01:18:43;23.00;99.90
48535;DHT22;34323;52.022;5.686;2023-07-02T01:21:10;23.10;99.90
48535;DHT22;34323;52.022;5.686;2023-07-02T01:23:35;23.10;99.90
48535;DHT22;34323;52.022;5.686;2023-07-02T01:26:01;23.00;99.90
48535;DHT22;34323;52.022;5.686;2023-07-02T01:28:35;22.70;99.90
48535;DHT22;34323;52.022;5.686;2023-07-02T01:31:02;22.50;99.90
48535;DHT22;34323;52.022;5.686;2023-07-02T01:33:28;22.50;99.90
48535;DHT22;34323;52.022;5.686;2023-07-02T01:35:53;22.60;99.90
48535;DHT22;34323;52.022;5.686;2023-07-02T01:38:19;22.60;99.90
48535;DHT22;34323;52.022;5.686;2023-07-02T01:40:44;22.60;99.90
48535;DHT22;34323;52.022;5.686;2023-07-02T01:43:10;22.40;99.90
48535;DHT22;34323;52.022;5.686;2023-07-02T01:45:37;22.30;99.90
48535;DHT22;34323;52.022;5.686;2023-07-02T01:48:03;22.20;99.90
48535;DHT22;34323;52.022;5.686;2023-07-02T01:50:28;22.20;99.90
48535;DHT22;34323;52.022;5.686;2023-07-02T01:52:54;22.20;99.90
48535;DHT22;34323;52.022;5.686;2023-07-02T01:55:19;22.30;99.90
48535;DHT22;34323;52.022;5.686;2023-07-02T01:57:45;22.20;99.90
48535;DHT22;34323;52.022;5.686;2023-07-02T02:00:11;22.00;99.90
48535;DHT22;34323;52.022;5.686;2023-07-02T02:02:37;21.80;99.90
48535;DHT22;34323;52.022;5.686;2023-07-02T02:05:02;21.80;99.90
48535;DHT22;34323;52.022;5.686;2023-07-02T02:07:28;21.90;99.90
48535;DHT22;34323;52.022;5.686;2023-07-02T02:09:54;22.00;99.90
48535;DHT22;34323;52.022;5.686;2023-07-02T02:12:19;22.10;99.90
48535;DHT22;34323;52.022;5.686;2023-07-02T02:14:45;22.20;99.90
48535;DHT22;34323;52.022;5.686;2023-07-02T02:17:10;22.00;99.90
48535;DHT22;34323;52.022;5.686;2023-07-02T02:19:36;21.90;99.90
48535;DHT22;34323;52.022;5.686;2023-07-02T02:22:01;21.90;99.90
48535;DHT22;34323;52.022;5.686;2023-07-02T02:24:27;21.90;99.90
48535;DHT22;34323;52.022;5.686;2023-07-02T02:26:52;22.10;99.90
48535;DHT22;34323;52.022;5.686;2023-07-02T02:29:18;22.10;99.90
48535;DHT22;34323;52.022;5.686;2023-07-02T02:31:43;22.00;99.90
48535;DHT22;34323;52.022;5.686;2023-07-02T02:34:09;22.00;99.90
48535;DHT22;34323;52.022;5.686;2023-07-02T02:36:35;22.10;99.90
48535;DHT22;34323;52.022;5.686;2023-07-02T02:39:00;22.20;99.90
48535;DHT22;34323;52.022;5.686;2023-07-02T02:41:26;22.10;99.90
48535;DHT22;34323;52.022;5.686;2023-07-02T02:43:51;22.20;99.90
48535;DHT22;34323;52.022;5.686;2023-07-02T02:46:21;22.20;99.90
48535;DHT22;34323;52.022;5.686;2023-07-02T02:48:50;22.30;99.90
48535;DHT22;34323;52.022;5.686;2023-07-02T02:51:16;22.20;99.90
48535;DHT22;34323;52.022;5.686;2023-07-02T02:53:42;22.10;99.90
48535;DHT22;34323;52.022;5.686;2023-07-02T02:56:08;22.10;99.90
48535;DHT22;34323;52.022;5.686;2023-07-02T02:58:33;21.90;99.90
48535;DHT22;34323;52.022;5.686;2023-07-02T03:00:59;21.90;99.90
48535;DHT22;34323;52.022;5.686;2023-07-02T03:03:24;21.90;99.90
48535;DHT22;34323;52.022;5.686;2023-07-02T03:05:50;21.80;99.90
48535;DHT22;34323;52.022;5.686;2023-07-02T03:08:16;21.70;99.90
48535;DHT22;34323;52.022;5.686;2023-07-02T03:10:42;21.50;99.90
48535;DHT22;34323;52.022;5.686;2023-07-02T03:13:07;21.40;99.90
48535;DHT22;34323;52.022;5.686;2023-07-02T03:15:33;21.40;99.90
48535;DHT22;34323;52.022;5.686;2023-07-02T03:17:59;21.00;99.90
48535;DHT22;34323;52.022;5.686;2023-07-02T03:20:24;20.80;99.90
48535;DHT22;34323;52.022;5.686;2023-07-02T03:22:50;20.90;99.90
48535;DHT22;34323;52.022;5.686;2023-07-02T03:25:15;20.90;99.90
48535;DHT22;34323;52.022;5.686;2023-07-02T03:27:41;21.00;99.90
48535;DHT22;34323;52.022;5.686;2023-07-02T03:30:07;21.00;99.90
48535;DHT22;34323;52.022;5.686;2023-07-02T03:32:33;21.00;99.90
48535;DHT22;34323;52.022;5.686;2023-07-02T03:34:58;20.70;99.90
48535;DHT22;34323;52.022;5.686;2023-07-02T03:37:24;21.00;99.90
48535;DHT22;34323;52.022;5.686;2023-07-02T03:39:49;21.10;99.90
48535;DHT22;34323;52.022;5.686;2023-07-02T03:42:15;21.00;99.90
48535;DHT22;34323;52.022;5.686;2023-07-02T03:44:41;20.80;99.90
48535;DHT22;34323;52.022;5.686;2023-07-02T03:47:07;20.80;99.90
48535;DHT22;34323;52.022;5.686;2023-07-02T03:49:33;20.70;99.90
48535;DHT22;34323;52.022;5.686;2023-07-02T03:51:59;20.70;99.90
48535;DHT22;34323;52.022;5.686;2023-07-02T03:54:25;20.70;99.90
48535;DHT22;34323;52.022;5.686;2023-07-02T03:56:50;20.50;99.90
48535;DHT22;34323;52.022;5.686;2023-07-02T03:59:16;20.60;99.90
48535;DHT22;34323;52.022;5.686;2023-07-02T04:01:41;20.60;99.90
48535;DHT22;34323;52.022;5.686;2023-07-02T04:04:07;20.50;99.90
48535;DHT22;34323;52.022;5.686;2023-07-02T04:06:33;20.40;99.90
48535;DHT22;34323;52.022;5.686;2023-07-02T04:08:59;20.20;99.90
48535;DHT22;34323;52.022;5.686;2023-07-02T04:11:25;20.30;99.90
48535;DHT22;34323;52.022;5.686;2023-07-02T04:13:50;20.30;99.90
48535;DHT22;34323;52.022;5.686;2023-07-02T04:16:16;20.20;99.90
48535;DHT22;34323;52.022;5.686;2023-07-02T04:18:41;20.30;99.90
48535;DHT22;34323;52.022;5.686;2023-07-02T04:21:07;20.30;99.90
48535;DHT22;34323;52.022;5.686;2023-07-02T04:23:32;20.40;99.90
48535;DHT22;34323;52.022;5.686;2023-07-02T04:25:58;20.30;99.90
48535;DHT22;34323;52.022;5.686;2023-07-02T04:28:23;20.40;99.90
48535;DHT22;34323;52.022;5.686;2023-07-02T04:30:49;20.40;99.90
48535;DHT22;34323;52.022;5.686;2023-07-02T04:33:17;20.60;99.90
48535;DHT22;34323;52.022;5.686;2023-07-02T04:35:43;20.70;99.90
48535;DHT22;34323;52.022;5.686;2023-07-02T04:38:08;20.50;99.90
48535;DHT22;34323;52.022;5.686;2023-07-02T04:40:34;20.40;99.90
48535;DHT22;34323;52.022;5.686;2023-07-02T04:42:59;20.50;99.90
48535;DHT22;34323;52.022;5.686;2023-07-02T04:45:26;20.60;99.90
48535;DHT22;34323;52.022;5.686;2023-07-02T04:47:52;20.60;99.90
48535;DHT22;34323;52.022;5.686;2023-07-02T04:50:18;20.40;99.90
48535;DHT22;34323;52.022;5.686;2023-07-02T04:52:44;20.30;99.90
48535;DHT22;34323;52.022;5.686;2023-07-02T04:55:10;20.40;99.90
48535;DHT22;34323;52.022;5.686;2023-07-02T04:57:35;20.70;99.90
48535;DHT22;34323;52.022;5.686;2023-07-02T05:00:01;20.60;99.90
48535;DHT22;34323;52.022;5.686;2023-07-02T05:02:29;20.20;99.90
48535;DHT22;34323;52.022;5.686;2023-07-02T05:04:54;20.00;99.90
48535;DHT22;34323;52.022;5.686;2023-07-02T05:07:20;19.90;99.90
48535;DHT22;34323;52.022;5.686;2023-07-02T05:09:46;20.10;99.90
48535;DHT22;34323;52.022;5.686;2023-07-02T05:12:11;20.10;99.90
48535;DHT22;34323;52.022;5.686;2023-07-02T05:14:37;20.10;99.90
48535;DHT22;34323;52.022;5.686;2023-07-02T05:17:03;20.00;99.90
48535;DHT22;34323;52.022;5.686;2023-07-02T05:19:28;20.10;99.90
48535;DHT22;34323;52.022;5.686;2023-07-02T05:21:54;20.00;99.90
48535;DHT22;34323;52.022;5.686;2023-07-02T05:24:19;20.20;99.90
48535;DHT22;34323;52.022;5.686;2023-07-02T05:26:45;20.10;99.90
48535;DHT22;34323;52.022;5.686;2023-07-02T05:29:11;20.20;99.90
48535;DHT22;34323;52.022;5.686;2023-07-02T05:31:37;20.40;99.90
48535;DHT22;34323;52.022;5.686;2023-07-02T05:34:02;20.50;99.90
48535;DHT22;34323;52.022;5.686;2023-07-02T05:36:28;20.80;99.90
48535;DHT22;34323;52.022;5.686;2023-07-02T05:38:53;21.00;99.90
48535;DHT22;34323;52.022;5.686;2023-07-02T05:41:20;20.70;99.90
48535;DHT22;34323;52.022;5.686;2023-07-02T05:43:45;20.80;99.90
48535;DHT22;34323;52.022;5.686;2023-07-02T05:46:11;21.10;99.90
48535;DHT22;34323;52.022;5.686;2023-07-02T05:48:40;21.40;99.90
48535;DHT22;34323;52.022;5.686;2023-07-02T05:51:07;21.40;99.90
48535;DHT22;34323;52.022;5.686;2023-07-02T05:53:32;21.40;99.90
48535;DHT22;34323;52.022;5.686;2023-07-02T05:55:58;20.70;99.90
48535;DHT22;34323;52.022;5.686;2023-07-02T05:58:23;20.30;99.90
48535;DHT22;34323;52.022;5.686;2023-07-02T06:00:49;20.00;99.90
48535;DHT22;34323;52.022;5.686;2023-07-02T06:03:23;20.00;99.90
48535;DHT22;34323;52.022;5.686;2023-07-02T06:05:49;20.30;99.90
48535;DHT22;34323;52.022;5.686;2023-07-02T06:08:16;20.70;99.90
48535;DHT22;34323;52.022;5.686;2023-07-02T06:10:43;20.80;99.90
48535;DHT22;34323;52.022;5.686;2023-07-02T06:13:09;21.10;99.90
48535;DHT22;34323;52.022;5.686;2023-07-02T06:15:34;21.20;99.90
48535;DHT22;34323;52.022;5.686;2023-07-02T06:18:00;21.30;99.90
48535;DHT22;34323;52.022;5.686;2023-07-02T06:20:26;21.00;99.90
48535;DHT22;34323;52.022;5.686;2023-07-02T06:22:51;20.90;99.90
48535;DHT22;34323;52.022;5.686;2023-07-02T06:25:17;20.70;99.90
48535;DHT22;34323;52.022;5.686;2023-07-02T06:27:42;20.40;99.90
48535;DHT22;34323;52.022;5.686;2023-07-02T06:30:08;20.40;99.90
48535;DHT22;34323;52.022;5.686;2023-07-02T06:32:33;20.60;99.90
48535;DHT22;34323;52.022;5.686;2023-07-02T06:34:59;20.90;99.90
48535;DHT22;34323;52.022;5.686;2023-07-02T06:37:25;20.90;99.90
48535;DHT22;34323;52.022;5.686;2023-07-02T06:39:50;20.90;99.90
48535;DHT22;34323;52.022;5.686;2023-07-02T06:42:16;20.70;99.90
48535;DHT22;34323;52.022;5.686;2023-07-02T06:44:41;20.90;99.90
48535;DHT22;34323;52.022;5.686;2023-07-02T06:47:07;21.00;99.90
48535;DHT22;34323;52.022;5.686;2023-07-02T06:49:33;20.90;99.90
48535;DHT22;34323;52.022;5.686;2023-07-02T06:51:58;20.80;99.90
48535;DHT22;34323;52.022;5.686;2023-07-02T06:54:26;20.60;99.90
48535;DHT22;34323;52.022;5.686;2023-07-02T06:56:51;20.60;99.90
48535;DHT22;34323;52.022;5.686;2023-07-02T06:59:21;20.70;99.90
48535;DHT22;34323;52.022;5.686;2023-07-02T07:01:47;20.80;99.90
48535;DHT22;34323;52.022;5.686;2023-07-02T07:04:13;20.80;99.90
48535;DHT22;34323;52.022;5.686;2023-07-02T07:06:38;20.80;99.90
48535;DHT22;34323;52.022;5.686;2023-07-02T07:09:04;20.60;99.90
48535;DHT22;34323;52.022;5.686;2023-07-02T07:11:29;20.70;99.90
48535;DHT22;34323;52.022;5.686;2023-07-02T07:13:55;21.00;99.90
48535;DHT22;34323;52.022;5.686;2023-07-02T07:16:20;21.40;99.90
48535;DHT22;34323;52.022;5.686;2023-07-02T07:18:46;21.10;99.90
48535;DHT22;34323;52.022;5.686;2023-07-02T07:21:12;21.10;99.90
48535;DHT22;34323;52.022;5.686;2023-07-02T07:23:39;21.00;99.90
48535;DHT22;34323;52.022;5.686;2023-07-02T07:26:04;21.20;99.90
48535;DHT22;34323;52.022;5.686;2023-07-02T07:28:30;21.30;99.90
48535;DHT22;34323;52.022;5.686;2023-07-02T07:30:55;20.80;99.90
48535;DHT22;34323;52.022;5.686;2023-07-02T07:33:21;20.90;99.90
48535;DHT22;34323;52.022;5.686;2023-07-02T07:35:46;21.30;99.90
48535;DHT22;34323;52.022;5.686;2023-07-02T07:38:15;21.30;99.90
48535;DHT22;34323;52.022;5.686;2023-07-02T07:40:42;21.40;99.90
48535;DHT22;34323;52.022;5.686;2023-07-02T07:43:08;21.60;99.90
48535;DHT22;34323;52.022;5.686;2023-07-02T07:45:34;21.60;99.90
48535;DHT22;34323;52.022;5.686;2023-07-02T07:48:00;21.70;99.90
48535;DHT22;34323;52.022;5.686;2023-07-02T07:50:25;21.60;99.90
48535;DHT22;34323;52.022;5.686;2023-07-02T07:52:51;21.50;99.90
48535;DHT22;34323;52.022;5.686;2023-07-02T07:55:17;21.50;99.90
48535;DHT22;34323;52.022;5.686;2023-07-02T07:57:42;21.50;99.90
48535;DHT22;34323;52.022;5.686;2023-07-02T08:00:08;21.30;99.90
48535;DHT22;34323;52.022;5.686;2023-07-02T08:02:37;21.70;99.90
48535;DHT22;34323;52.022;5.686;2023-07-02T08:05:03;22.00;99.90
48535;DHT22;34323;52.022;5.686;2023-07-02T08:07:30;21.90;99.90
48535;DHT22;34323;52.022;5.686;2023-07-02T08:09:56;21.80;99.90
48535;DHT22;34323;52.022;5.686;2023-07-02T08:12:21;21.90;99.90
48535;DHT22;34323;52.022;5.686;2023-07-02T08:14:47;21.90;99.90
48535;DHT22;34323;52.022;5.686;2023-07-02T08:17:12;21.90;99.90
48535;DHT22;34323;52.022;5.686;2023-07-02T08:19:38;21.40;99.90
48535;DHT22;34323;52.022;5.686;2023-07-02T08:22:04;20.90;99.90
48535;DHT22;34323;52.022;5.686;2023-07-02T08:24:29;21.20;99.90
48535;DHT22;34323;52.022;5.686;2023-07-02T08:26:57;21.60;99.90
48535;DHT22;34323;52.022;5.686;2023-07-02T08:29:23;21.60;99.90
48535;DHT22;34323;52.022;5.686;2023-07-02T08:31:48;21.60;99.90
48535;DHT22;34323;52.022;5.686;2023-07-02T08:34:14;21.40;99.90
48535;DHT22;34323;52.022;5.686;2023-07-02T08:36:39;21.50;99.90
48535;DHT22;34323;52.022;5.686;2023-07-02T08:39:05;21.70;99.90
48535;DHT22;34323;52.022;5.686;2023-07-02T08:41:30;21.60;99.90
48535;DHT22;34323;52.022;5.686;2023-07-02T08:44:06;21.80;99.90
48535;DHT22;34323;52.022;5.686;2023-07-02T08:46:32;22.00;99.90
48535;DHT22;34323;52.022;5.686;2023-07-02T08:48:58;22.20;99.90
48535;DHT22;34323;52.022;5.686;2023-07-02T08:51:23;22.60;99.90
48535;DHT22;34323;52.022;5.686;2023-07-02T08:53:49;22.60;99.90
48535;DHT22;34323;52.022;5.686;2023-07-02T08:56:14;22.60;99.90
48535;DHT22;34323;52.022;5.686;2023-07-02T08:58:40;22.70;99.90
48535;DHT22;34323;52.022;5.686;2023-07-02T09:01:11;22.90;99.90
48535;DHT22;34323;52.022;5.686;2023-07-02T09:03:38;22.70;99.90
48535;DHT22;34323;52.022;5.686;2023-07-02T09:06:05;22.50;99.90
48535;DHT22;34323;52.022;5.686;2023-07-02T09:08:30;22.10;99.90
48535;DHT22;34323;52.022;5.686;2023-07-02T09:11:25;22.20;99.90
48535;DHT22;34323;52.022;5.686;2023-07-02T09:13:52;22.60;99.90
48535;DHT22;34323;52.022;5.686;2023-07-02T09:16:27;22.50;99.90
48535;DHT22;34323;52.022;5.686;2023-07-02T09:19:07;21.80;99.90
48535;DHT22;34323;52.022;5.686;2023-07-02T09:21:46;21.70;99.90
48535;DHT22;34323;52.022;5.686;2023-07-02T09:24:16;22.10;99.90
48535;DHT22;34323;52.022;5.686;2023-07-02T09:26:46;22.20;99.90
48535;DHT22;34323;52.022;5.686;2023-07-02T09:29:19;22.70;99.90
48535;DHT22;34323;52.022;5.686;2023-07-02T09:31:46;23.00;99.90
48535;DHT22;34323;52.022;5.686;2023-07-02T09:34:12;23.00;99.90
48535;DHT22;34323;52.022;5.686;2023-07-02T09:36:39;23.00;99.90
48535;DHT22;34323;52.022;5.686;2023-07-02T09:39:12;23.20;99.90
48535;DHT22;34323;52.022;5.686;2023-07-02T09:41:41;23.00;99.90
48535;DHT22;34323;52.022;5.686;2023-07-02T09:44:11;22.80;99.90
48535;DHT22;34323;52.022;5.686;2023-07-02T09:46:51;22.80;99.90
48535;DHT22;34323;52.022;5.686;2023-07-02T09:49:20;22.90;99.90
48535;DHT22;34323;52.022;5.686;2023-07-02T09:51:46;22.80;99.90
48535;DHT22;34323;52.022;5.686;2023-07-02T09:54:11;22.60;99.90
48535;DHT22;34323;52.022;5.686;2023-07-02T09:56:37;22.80;99.90
48535;DHT22;34323;52.022;5.686;2023-07-02T09:59:03;22.90;99.90
48535;DHT22;34323;52.022;5.686;2023-07-02T10:01:29;23.00;99.90
48535;DHT22;34323;52.022;5.686;2023-07-02T10:03:54;23.00;99.90
48535;DHT22;34323;52.022;5.686;2023-07-02T10:06:20;22.90;99.90
48535;DHT22;34323;52.022;5.686;2023-07-02T10:08:55;23.10;99.90
48535;DHT22;34323;52.022;5.686;2023-07-02T10:11:21;23.10;99.90
48535;DHT22;34323;52.022;5.686;2023-07-02T10:13:58;23.00;99.90
48535;DHT22;34323;52.022;5.686;2023-07-02T10:16:24;23.20;99.90
48535;DHT22;34323;52.022;5.686;2023-07-02T10:18:55;23.40;99.90
48535;DHT22;34323;52.022;5.686;2023-07-02T10:21:21;23.60;99.90
48535;DHT22;34323;52.022;5.686;2023-07-02T10:23:46;23.90;99.90
48535;DHT22;34323;52.022;5.686;2023-07-02T10:26:17;24.00;99.90
48535;DHT22;34323;52.022;5.686;2023-07-02T10:28:55;24.10;99.90
48535;DHT22;34323;52.022;5.686;2023-07-02T10:31:21;24.00;99.90
48535;DHT22;34323;52.022;5.686;2023-07-02T10:33:47;24.00;99.90
48535;DHT22;34323;52.022;5.686;2023-07-02T10:38:45;24.30;99.90
48535;DHT22;34323;52.022;5.686;2023-07-02T10:41:12;24.50;99.90
48535;DHT22;34323;52.022;5.686;2023-07-02T10:43:38;24.40;99.90
48535;DHT22;34323;52.022;5.686;2023-07-02T10:46:03;24.50;99.90
48535;DHT22;34323;52.022;5.686;2023-07-02T10:48:30;24.50;99.50
48535;DHT22;34323;52.022;5.686;2023-07-02T10:50:56;24.80;98.90
48535;DHT22;34323;52.022;5.686;2023-07-02T10:53:22;24.80;99.20
48535;DHT22;34323;52.022;5.686;2023-07-02T10:55:57;24.90;99.50
48535;DHT22;34323;52.022;5.686;2023-07-02T10:58:24;24.90;98.20
48535;DHT22;34323;52.022;5.686;2023-07-02T11:00:50;25.00;99.50
48535;DHT22;34323;52.022;5.686;2023-07-02T11:03:21;25.00;99.10
48535;DHT22;34323;52.022;5.686;2023-07-02T11:05:48;25.00;98.60
48535;DHT22;34323;52.022;5.686;2023-07-02T11:08:14;25.00;98.50
48535;DHT22;34323;52.022;5.686;2023-07-02T11:10:40;25.20;98.40
48535;DHT22;34323;52.022;5.686;2023-07-02T11:13:17;25.40;98.70
48535;DHT22;34323;52.022;5.686;2023-07-02T11:15:43;25.40;98.20
48535;DHT22;34323;52.022;5.686;2023-07-02T11:18:12;25.40;98.30
48535;DHT22;34323;52.022;5.686;2023-07-02T11:20:38;25.30;98.20
48535;DHT22;34323;52.022;5.686;2023-07-02T11:23:04;25.40;97.90
48535;DHT22;34323;52.022;5.686;2023-07-02T11:25:30;25.30;97.50
48535;DHT22;34323;52.022;5.686;2023-07-02T11:28:04;24.60;98.50
48535;DHT22;34323;52.022;5.686;2023-07-02T11:30:29;24.80;98.00
48535;DHT22;34323;52.022;5.686;2023-07-02T11:32:55;24.50;98.10
48535;DHT22;34323;52.022;5.686;2023-07-02T11:35:22;24.30;97.60
48535;DHT22;34323;52.022;5.686;2023-07-02T11:37:58;24.20;97.90
48535;DHT22;34323;52.022;5.686;2023-07-02T11:40:24;24.40;98.60
48535;DHT22;34323;52.022;5.686;2023-07-02T11:42:49;24.70;97.90
48535;DHT22;34323;52.022;5.686;2023-07-02T11:45:15;24.90;98.00
48535;DHT22;34323;52.022;5.686;2023-07-02T11:47:40;25.20;98.10
48535;DHT22;34323;52.022;5.686;2023-07-02T11:50:07;25.40;97.10
48535;DHT22;34323;52.022;5.686;2023-07-02T11:52:32;25.20;97.40
48535;DHT22;34323;52.022;5.686;2023-07-02T11:54:58;24.90;96.80
48535;DHT22;34323;52.022;5.686;2023-07-02T11:57:23;24.50;97.60
48535;DHT22;34323;52.022;5.686;2023-07-02T11:59:49;24.70;97.60
48535;DHT22;34323;52.022;5.686;2023-07-02T12:02:15;25.10;97.60
48535;DHT22;34323;52.022;5.686;2023-07-02T12:04:41;25.10;97.20
48535;DHT22;34323;52.022;5.686;2023-07-02T12:07:07;25.20;97.00
48535;DHT22;34323;52.022;5.686;2023-07-02T12:09:32;25.20;97.20
48535;DHT22;34323;52.022;5.686;2023-07-02T12:11:58;25.10;97.60
48535;DHT22;34323;52.022;5.686;2023-07-02T12:14:23;25.10;98.00
48535;DHT22;34323;52.022;5.686;2023-07-02T12:16:49;25.20;97.40
48535;DHT22;34323;52.022;5.686;2023-07-02T12:19:15;25.10;97.90
48535;DHT22;34323;52.022;5.686;2023-07-02T12:21:40;25.30;97.30
48535;DHT22;34323;52.022;5.686;2023-07-02T12:24:06;25.30;97.00
48535;DHT22;34323;52.022;5.686;2023-07-02T12:26:35;25.50;97.30
48535;DHT22;34323;52.022;5.686;2023-07-02T12:29:01;25.70;97.00
48535;DHT22;34323;52.022;5.686;2023-07-02T12:31:26;26.00;97.20
48535;DHT22;34323;52.022;5.686;2023-07-02T12:33:52;26.30;96.80
48535;DHT22;34323;52.022;5.686;2023-07-02T12:36:17;26.40;97.50
48535;DHT22;34323;52.022;5.686;2023-07-02T12:38:43;26.50;96.50
48535;DHT22;34323;52.022;5.686;2023-07-02T12:41:08;26.60;97.00
48535;DHT22;34323;52.022;5.686;2023-07-02T12:43:34;26.60;97.20
48535;DHT22;34323;52.022;5.686;2023-07-02T12:45:59;26.70;96.50
48535;DHT22;34323;52.022;5.686;2023-07-02T12:48:25;26.70;96.50
48535;DHT22;34323;52.022;5.686;2023-07-02T12:50:58;26.60;97.30
48535;DHT22;34323;52.022;5.686;2023-07-02T12:53:27;26.40;97.40
48535;DHT22;34323;52.022;5.686;2023-07-02T12:55:54;26.50;96.90
48535;DHT22;34323;52.022;5.686;2023-07-02T12:58:23;26.30;97.20
48535;DHT22;34323;52.022;5.686;2023-07-02T13:00:48;26.00;96.60
48535;DHT22;34323;52.022;5.686;2023-07-02T13:03:14;25.60;97.00
48535;DHT22;34323;52.022;5.686;2023-07-02T13:05:40;25.70;96.90
48535;DHT22;34323;52.022;5.686;2023-07-02T13:08:06;25.50;97.10
48535;DHT22;34323;52.022;5.686;2023-07-02T13:10:32;25.60;97.20
48535;DHT22;34323;52.022;5.686;2023-07-02T13:12:58;25.70;97.40
48535;DHT22;34323;52.022;5.686;2023-07-02T13:15:24;25.60;97.50
48535;DHT22;34323;52.022;5.686;2023-07-02T13:17:50;25.80;97.80
48535;DHT22;34323;52.022;5.686;2023-07-02T13:20:16;26.20;97.60
48535;DHT22;34323;52.022;5.686;2023-07-02T13:22:42;26.10;97.40
48535;DHT22;34323;52.022;5.686;2023-07-02T13:25:07;25.80;98.30
48535;DHT22;34323;52.022;5.686;2023-07-02T13:27:33;26.30;97.40
48535;DHT22;34323;52.022;5.686;2023-07-02T13:29:59;26.60;97.60
48535;DHT22;34323;52.022;5.686;2023-07-02T13:32:24;26.50;96.90
48535;DHT22;34323;52.022;5.686;2023-07-02T13:34:50;26.30;97.60
48535;DHT22;34323;52.022;5.686;2023-07-02T13:37:16;26.60;97.40
48535;DHT22;34323;52.022;5.686;2023-07-02T13:39:45;26.90;97.10
48535;DHT22;34323;52.022;5.686;2023-07-02T13:42:11;27.10;97.60
48535;DHT22;34323;52.022;5.686;2023-07-02T13:44:37;26.60;96.90
48535;DHT22;34323;52.022;5.686;2023-07-02T13:47:02;26.00;98.30
48535;DHT22;34323;52.022;5.686;2023-07-02T13:49:28;26.20;97.90
48535;DHT22;34323;52.022;5.686;2023-07-02T13:51:53;27.10;97.80
48535;DHT22;34323;52.022;5.686;2023-07-02T13:54:19;27.80;97.40
48535;DHT22;34323;52.022;5.686;2023-07-02T13:56:46;28.40;97.00
48535;DHT22;34323;52.022;5.686;2023-07-02T13:59:12;28.60;97.40
48535;DHT22;34323;52.022;5.686;2023-07-02T14:01:38;29.30;96.90
48535;DHT22;34323;52.022;5.686;2023-07-02T14:04:04;28.70;96.40
48535;DHT22;34323;52.022;5.686;2023-07-02T14:06:30;29.00;97.30
48535;DHT22;34323;52.022;5.686;2023-07-02T14:08:56;29.40;97.30
48535;DHT22;34323;52.022;5.686;2023-07-02T14:11:23;29.80;96.10
48535;DHT22;34323;52.022;5.686;2023-07-02T14:13:49;29.90;96.90
48535;DHT22;34323;52.022;5.686;2023-07-02T14:16:15;29.90;96.10
48535;DHT22;34323;52.022;5.686;2023-07-02T14:18:41;29.50;96.50
48535;DHT22;34323;52.022;5.686;2023-07-02T14:21:07;28.90;96.20
48535;DHT22;34323;52.022;5.686;2023-07-02T14:23:32;28.30;96.20
48535;DHT22;34323;52.022;5.686;2023-07-02T14:25:58;27.90;96.20
48535;DHT22;34323;52.022;5.686;2023-07-02T14:28:25;27.80;96.30
48535;DHT22;34323;52.022;5.686;2023-07-02T14:30:58;27.70;96.60
48535;DHT22;34323;52.022;5.686;2023-07-02T14:33:25;27.20;96.00
48535;DHT22;34323;52.022;5.686;2023-07-02T14:35:51;27.00;95.90
48535;DHT22;34323;52.022;5.686;2023-07-02T14:38:16;26.50;96.00
48535;DHT22;34323;52.022;5.686;2023-07-02T14:40:42;26.90;95.90
48535;DHT22;34323;52.022;5.686;2023-07-02T14:43:07;27.20;95.90
48535;DHT22;34323;52.022;5.686;2023-07-02T14:45:33;27.00;95.40
48535;DHT22;34323;52.022;5.686;2023-07-02T14:47:58;26.10;96.00
48535;DHT22;34323;52.022;5.686;2023-07-02T14:50:26;26.20;96.40
48535;DHT22;34323;52.022;5.686;2023-07-02T14:52:52;26.50;95.80
48535;DHT22;34323;52.022;5.686;2023-07-02T14:55:18;26.50;95.40
48535;DHT22;34323;52.022;5.686;2023-07-02T14:57:44;26.70;96.00
48535;DHT22;34323;52.022;5.686;2023-07-02T15:00:10;26.50;94.60
48535;DHT22;34323;52.022;5.686;2023-07-02T15:02:35;26.50;95.00
48535;DHT22;34323;52.022;5.686;2023-07-02T15:05:01;26.50;95.20
48535;DHT22;34323;52.022;5.686;2023-07-02T15:07:28;26.60;95.00
48535;DHT22;34323;52.022;5.686;2023-07-02T15:09:53;26.50;95.20
48535;DHT22;34323;52.022;5.686;2023-07-02T15:12:19;26.80;95.20
48535;DHT22;34323;52.022;5.686;2023-07-02T15:14:45;27.40;95.20
48535;DHT22;34323;52.022;5.686;2023-07-02T15:17:10;27.90;95.80
48535;DHT22;34323;52.022;5.686;2023-07-02T15:19:36;27.90;94.40
48535;DHT22;34323;52.022;5.686;2023-07-02T15:22:02;27.70;94.50
48535;DHT22;34323;52.022;5.686;2023-07-02T15:24:27;27.80;95.00
48535;DHT22;34323;52.022;5.686;2023-07-02T15:26:53;28.10;94.70
48535;DHT22;34323;52.022;5.686;2023-07-02T15:29:19;27.70;95.10